sensor_id;sensor_type;location;lat;lon;timestamp;temperature;humidity
34279;DHT22;20538;51.528;9.942;2023-09-30T00:00:00;14.60;99.90
34279;DHT22;20538;51.528;9.942;2023-09-30T00:02:26;14.50;99.90
34279;DHT22;20538;51.528;9.942;2023-09-30T00:04:53;14.50;99.90
34279;DHT22;20538;51.528;9.942;2023-09-30T00:07:19;14.40;99.90
34279;DHT22;20538;51.528;9.942;2023-09-30T00:09:44;14.40;99.90
34279;DHT22;20538;51.528;9.942;2023-09-30T00:12:10;14.30;99.90
34279;DHT22;20538;51.528;9.942;2023-09-30T00:14:36;14.20;99.90
34279;DHT22;20538;51.528;9.942;2023-09-30T00:17:03;14.20;99.90
34279;DHT22;20538;51.528;9.942;2023-09-30T00:19:28;14.10;99.90
34279;DHT22;20538;51.528;9.942;2023-09-30T00:21:54;14.10;99.90
34279;DHT22;20538;51.528;9.942;2023-09-30T00:24:20;14.10;99.90
34279;DHT22;20538;51.528;9.942;2023-09-30T00:26:45;14.00;99.90
34279;DHT22;20538;51.528;9.942;2023-09-30T00:29:11;14.00;99.90
34279;DHT22;20538;51.528;9.942;2023-09-30T00:31:37;14.00;99.90
34279;DHT22;20538;51.528;9.942;2023-09-30T00:34:02;14.00;99.90
34279;DHT22;20538;51.528;9.942;2023-09-30T00:36:28;13.90;99.90
34279;DHT22;20538;51.528;9.942;2023-09-30T00:38:54;13.90;99.90
34279;DHT22;20538;51.528;9.942;2023-09-30T00:41:19;13.80;99.90
34279;DHT22;20538;51.528;9.942;2023-09-30T00:43:48;13.70;99.90
34279;DHT22;20538;51.528;9.942;2023-09-30T00:46:32;13.70;99.90
34279;DHT22;20538;51.528;9.942;2023-09-30T00:48:59;13.60;99.90
34279;DHT22;20538;51.528;9.942;2023-09-30T00:53:53;13.60;99.90
34279;DHT22;20538;51.528;9.942;2023-09-30T00:56:19;13.60;99.90
34279;DHT22;20538;51.528;9.942;2023-09-30T00:58:48;13.60;99.90
34279;DHT22;20538;51.528;9.942;2023-09-30T01:01:16;13.50;99.90
34279;DHT22;20538;51.528;9.942;2023-09-30T01:03:43;13.40;99.90
34279;DHT22;20538;51.528;9.942;2023-09-30T01:06:08;13.30;99.90
34279;DHT22;20538;51.528;9.942;2023-09-30T01:08:35;13.30;99.90
34279;DHT22;20538;51.528;9.942;2023-09-30T01:11:01;13.30;99.90
34279;DHT22;20538;51.528;9.942;2023-09-30T01:13:36;13.20;99.90
34279;DHT22;20538;51.528;9.942;2023-09-30T01:16:07;13.30;99.90
34279;DHT22;20538;51.528;9.942;2023-09-30T01:18:35;13.20;99.90
34279;DHT22;20538;51.528;9.942;2023-09-30T01:21:04;13.20;99.90
34279;DHT22;20538;51.528;9.942;2023-09-30T01:23:31;13.10;99.90
34279;DHT22;20538;51.528;9.942;2023-09-30T01:25:57;13.10;99.90
34279;DHT22;20538;51.528;9.942;2023-09-30T01:28:24;13.00;99.90
34279;DHT22;20538;51.528;9.942;2023-09-30T01:30:50;12.90;99.90
34279;DHT22;20538;51.528;9.942;2023-09-30T01:33:16;12.90;99.90
34279;DHT22;20538;51.528;9.942;2023-09-30T01:35:42;12.90;99.90
34279;DHT22;20538;51.528;9.942;2023-09-30T01:38:08;12.90;99.90
34279;DHT22;20538;51.528;9.942;2023-09-30T01:40:33;12.80;99.90
34279;DHT22;20538;51.528;9.942;2023-09-30T01:42:59;12.90;99.90
34279;DHT22;20538;51.528;9.942;2023-09-30T01:45:24;12.80;99.90
34279;DHT22;20538;51.528;9.942;2023-09-30T01:47:50;12.80;99.90
34279;DHT22;20538;51.528;9.942;2023-09-30T01:50:16;12.80;99.90
34279;DHT22;20538;51.528;9.942;2023-09-30T01:52:42;12.60;99.90
34279;DHT22;20538;51.528;9.942;2023-09-30T01:55:08;12.70;99.90
34279;DHT22;20538;51.528;9.942;2023-09-30T01:57:34;12.70;99.90
34279;DHT22;20538;51.528;9.942;2023-09-30T01:59:59;12.70;99.90
34279;DHT22;20538;51.528;9.942;2023-09-30T02:02:25;12.70;99.90
34279;DHT22;20538;51.528;9.942;2023-09-30T02:04:51;12.60;99.90
34279;DHT22;20538;51.528;9.942;2023-09-30T02:07:22;12.60;99.90
34279;DHT22;20538;51.528;9.942;2023-09-30T02:09:47;12.60;99.90
34279;DHT22;20538;51.528;9.942;2023-09-30T02:12:13;12.60;99.90
34279;DHT22;20538;51.528;9.942;2023-09-30T02:14:39;12.70;99.90
34279;DHT22;20538;51.528;9.942;2023-09-30T02:17:05;12.60;99.90
34279;DHT22;20538;51.528;9.942;2023-09-30T02:19:30;12.60;99.90
34279;DHT22;20538;51.528;9.942;2023-09-30T02:21:59;12.60;99.90
34279;DHT22;20538;51.528;9.942;2023-09-30T02:24:25;12.60;99.90
34279;DHT22;20538;51.528;9.942;2023-09-30T02:26:50;12.60;99.90
34279;DHT22;20538;51.528;9.942;2023-09-30T02:29:16;12.60;99.90
34279;DHT22;20538;51.528;9.942;2023-09-30T02:31:42;12.60;99.90
34279;DHT22;20538;51.528;9.942;2023-09-30T02:34:08;12.60;99.90
34279;DHT22;20538;51.528;9.942;2023-09-30T02:36:34;12.60;99.90
34279;DHT22;20538;51.528;9.942;2023-09-30T02:39:04;12.60;99.90
34279;DHT22;20538;51.528;9.942;2023-09-30T02:41:30;12.60;99.90
34279;DHT22;20538;51.528;9.942;2023-09-30T02:43:56;12.50;99.90
34279;DHT22;20538;51.528;9.942;2023-09-30T02:46:22;12.50;99.90
34279;DHT22;20538;51.528;9.942;2023-09-30T02:48:47;12.50;99.90
34279;DHT22;20538;51.528;9.942;2023-09-30T02:51:13;12.40;99.90
34279;DHT22;20538;51.528;9.942;2023-09-30T02:53:38;12.30;99.90
34279;DHT22;20538;51.528;9.942;2023-09-30T02:56:04;12.30;99.90
34279;DHT22;20538;51.528;9.942;2023-09-30T02:58:30;12.20;99.90
34279;DHT22;20538;51.528;9.942;2023-09-30T03:00:56;12.20;99.90
34279;DHT22;20538;51.528;9.942;2023-09-30T03:03:24;12.30;99.90
34279;DHT22;20538;51.528;9.942;2023-09-30T03:05:51;12.20;99.90
34279;DHT22;20538;51.528;9.942;2023-09-30T03:08:17;12.30;99.90
34279;DHT22;20538;51.528;9.942;2023-09-30T03:10:43;12.10;99.90
34279;DHT22;20538;51.528;9.942;2023-09-30T03:13:08;12.10;99.90
34279;DHT22;20538;51.528;9.942;2023-09-30T03:15:35;12.10;99.90
34279;DHT22;20538;51.528;9.942;2023-09-30T03:18:01;12.10;99.90
34279;DHT22;20538;51.528;9.942;2023-09-30T03:20:27;12.10;99.90
34279;DHT22;20538;51.528;9.942;2023-09-30T03:22:52;12.10;99.90
34279;DHT22;20538;51.528;9.942;2023-09-30T03:25:19;12.10;99.90
34279;DHT22;20538;51.528;9.942;2023-09-30T03:27:46;12.10;99.90
34279;DHT22;20538;51.528;9.942;2023-09-30T03:30:16;12.10;99.90
34279;DHT22;20538;51.528;9.942;2023-09-30T03:32:42;12.10;99.90
34279;DHT22;20538;51.528;9.942;2023-09-30T03:35:09;12.20;99.90
34279;DHT22;20538;51.528;9.942;2023-09-30T03:37:45;12.20;99.90
34279;DHT22;20538;51.528;9.942;2023-09-30T03:40:12;12.20;99.90
34279;DHT22;20538;51.528;9.942;2023-09-30T03:42:44;12.10;99.90
34279;DHT22;20538;51.528;9.942;2023-09-30T03:45:10;12.20;99.90
34279;DHT22;20538;51.528;9.942;2023-09-30T03:47:37;12.20;99.90
34279;DHT22;20538;51.528;9.942;2023-09-30T03:50:04;12.10;99.90
34279;DHT22;20538;51.528;9.942;2023-09-30T03:52:33;12.20;99.90
34279;DHT22;20538;51.528;9.942;2023-09-30T03:55:00;12.10;99.90
34279;DHT22;20538;51.528;9.942;2023-09-30T03:57:31;12.10;99.90
34279;DHT22;20538;51.528;9.942;2023-09-30T03:59:57;12.10;99.90
34279;DHT22;20538;51.528;9.942;2023-09-30T04:02:23;12.00;99.90
34279;DHT22;20538;51.528;9.942;2023-09-30T04:04:48;12.00;99.90
34279;DHT22;20538;51.528;9.942;2023-09-30T04:07:16;12.00;99.90
34279;DHT22;20538;51.528;9.942;2023-09-30T04:09:42;11.90;99.90
34279;DHT22;20538;51.528;9.942;2023-09-30T04:12:08;12.00;99.90
34279;DHT22;20538;51.528;9.942;2023-09-30T04:14:33;12.00;99.90
34279;DHT22;20538;51.528;9.942;2023-09-30T04:16:59;11.90;99.90
34279;DHT22;20538;51.528;9.942;2023-09-30T04:19:24;11.90;99.90
34279;DHT22;20538;51.528;9.942;2023-09-30T04:21:50;11.90;99.90
34279;DHT22;20538;51.528;9.942;2023-09-30T04:24:15;11.90;99.90
34279;DHT22;20538;51.528;9.942;2023-09-30T04:26:41;11.90;99.90
34279;DHT22;20538;51.528;9.942;2023-09-30T04:29:07;11.90;99.90
34279;DHT22;20538;51.528;9.942;2023-09-30T04:31:37;11.90;99.90
34279;DHT22;20538;51.528;9.942;2023-09-30T04:34:04;11.90;99.90
34279;DHT22;20538;51.528;9.942;2023-09-30T04:36:31;11.90;99.90
34279;DHT22;20538;51.528;9.942;2023-09-30T04:38:57;11.90;99.90
34279;DHT22;20538;51.528;9.942;2023-09-30T04:41:26;11.80;99.90
34279;DHT22;20538;51.528;9.942;2023-09-30T04:43:52;11.80;99.90
34279;DHT22;20538;51.528;9.942;2023-09-30T04:46:18;11.80;99.90
34279;DHT22;20538;51.528;9.942;2023-09-30T04:48:48;11.80;99.90
34279;DHT22;20538;51.528;9.942;2023-09-30T04:51:14;11.80;99.90
34279;DHT22;20538;51.528;9.942;2023-09-30T04:53:43;11.80;99.90
34279;DHT22;20538;51.528;9.942;2023-09-30T04:56:10;11.80;99.90
34279;DHT22;20538;51.528;9.942;2023-09-30T04:58:36;11.80;99.90
34279;DHT22;20538;51.528;9.942;2023-09-30T05:01:01;11.70;99.90
34279;DHT22;20538;51.528;9.942;2023-09-30T05:03:27;11.70;99.90
34279;DHT22;20538;51.528;9.942;2023-09-30T05:05:53;11.60;99.90
34279;DHT22;20538;51.528;9.942;2023-09-30T05:08:21;11.60;99.90
34279;DHT22;20538;51.528;9.942;2023-09-30T05:10:47;11.60;99.90
34279;DHT22;20538;51.528;9.942;2023-09-30T05:13:13;11.70;99.90
34279;DHT22;20538;51.528;9.942;2023-09-30T05:15:39;11.70;99.90
34279;DHT22;20538;51.528;9.942;2023-09-30T05:18:07;11.70;99.90
34279;DHT22;20538;51.528;9.942;2023-09-30T05:20:35;11.70;99.90
34279;DHT22;20538;51.528;9.942;2023-09-30T05:23:02;11.60;99.90
34279;DHT22;20538;51.528;9.942;2023-09-30T05:25:28;11.70;99.90
34279;DHT22;20538;51.528;9.942;2023-09-30T05:27:54;11.60;99.90
34279;DHT22;20538;51.528;9.942;2023-09-30T05:30:19;11.70;99.90
34279;DHT22;20538;51.528;9.942;2023-09-30T05:32:46;11.70;99.90
34279;DHT22;20538;51.528;9.942;2023-09-30T05:35:12;11.70;99.90
34279;DHT22;20538;51.528;9.942;2023-09-30T05:37:42;11.70;99.90
34279;DHT22;20538;51.528;9.942;2023-09-30T05:40:09;11.70;99.90
34279;DHT22;20538;51.528;9.942;2023-09-30T05:42:47;11.80;99.90
34279;DHT22;20538;51.528;9.942;2023-09-30T05:45:15;11.90;99.90
34279;DHT22;20538;51.528;9.942;2023-09-30T05:47:41;11.90;99.90
34279;DHT22;20538;51.528;9.942;2023-09-30T05:50:07;11.90;99.90
34279;DHT22;20538;51.528;9.942;2023-09-30T05:52:34;11.80;99.90
34279;DHT22;20538;51.528;9.942;2023-09-30T05:55:01;11.80;99.90
34279;DHT22;20538;51.528;9.942;2023-09-30T05:57:28;11.90;99.90
34279;DHT22;20538;51.528;9.942;2023-09-30T05:59:54;11.90;99.90
34279;DHT22;20538;51.528;9.942;2023-09-30T06:02:19;12.00;99.90
34279;DHT22;20538;51.528;9.942;2023-09-30T06:04:45;12.00;99.90
34279;DHT22;20538;51.528;9.942;2023-09-30T06:07:12;12.00;99.90
34279;DHT22;20538;51.528;9.942;2023-09-30T06:09:37;12.10;99.90
34279;DHT22;20538;51.528;9.942;2023-09-30T06:12:03;12.10;99.90
34279;DHT22;20538;51.528;9.942;2023-09-30T06:14:32;12.10;99.90
34279;DHT22;20538;51.528;9.942;2023-09-30T06:16:57;12.10;99.90
34279;DHT22;20538;51.528;9.942;2023-09-30T06:19:23;12.30;99.90
34279;DHT22;20538;51.528;9.942;2023-09-30T06:21:51;12.30;99.90
34279;DHT22;20538;51.528;9.942;2023-09-30T06:24:17;12.30;99.90
34279;DHT22;20538;51.528;9.942;2023-09-30T06:26:45;12.40;99.90
34279;DHT22;20538;51.528;9.942;2023-09-30T06:29:11;12.40;99.90
34279;DHT22;20538;51.528;9.942;2023-09-30T06:31:37;12.50;99.90
34279;DHT22;20538;51.528;9.942;2023-09-30T06:34:02;12.60;99.90
34279;DHT22;20538;51.528;9.942;2023-09-30T06:36:29;12.60;99.90
34279;DHT22;20538;51.528;9.942;2023-09-30T06:38:55;12.60;99.90
34279;DHT22;20538;51.528;9.942;2023-09-30T06:41:21;12.60;99.90
34279;DHT22;20538;51.528;9.942;2023-09-30T06:43:46;12.70;99.90
34279;DHT22;20538;51.528;9.942;2023-09-30T06:46:12;12.70;99.90
34279;DHT22;20538;51.528;9.942;2023-09-30T06:48:39;12.70;99.90
34279;DHT22;20538;51.528;9.942;2023-09-30T06:51:08;12.80;99.90
34279;DHT22;20538;51.528;9.942;2023-09-30T06:53:38;12.90;99.90
34279;DHT22;20538;51.528;9.942;2023-09-30T06:56:06;12.90;99.90
34279;DHT22;20538;51.528;9.942;2023-09-30T06:58:32;13.00;99.90
34279;DHT22;20538;51.528;9.942;2023-09-30T07:00:58;13.00;99.90
34279;DHT22;20538;51.528;9.942;2023-09-30T07:03:24;13.00;99.90
34279;DHT22;20538;51.528;9.942;2023-09-30T07:05:50;13.10;99.90
34279;DHT22;20538;51.528;9.942;2023-09-30T07:08:16;13.10;99.90
34279;DHT22;20538;51.528;9.942;2023-09-30T07:10:43;13.00;99.90
34279;DHT22;20538;51.528;9.942;2023-09-30T07:13:09;13.00;99.90
34279;DHT22;20538;51.528;9.942;2023-09-30T07:15:35;13.00;99.90
34279;DHT22;20538;51.528;9.942;2023-09-30T07:18:00;13.00;99.90
34279;DHT22;20538;51.528;9.942;2023-09-30T07:20:26;13.00;99.90
34279;DHT22;20538;51.528;9.942;2023-09-30T07:22:52;13.00;99.90
34279;DHT22;20538;51.528;9.942;2023-09-30T07:25:18;13.10;99.90
34279;DHT22;20538;51.528;9.942;2023-09-30T07:27:44;13.20;99.90
34279;DHT22;20538;51.528;9.942;2023-09-30T07:30:11;13.30;99.90
34279;DHT22;20538;51.528;9.942;2023-09-30T07:32:38;13.50;99.90
34279;DHT22;20538;51.528;9.942;2023-09-30T07:35:04;13.60;99.90
34279;DHT22;20538;51.528;9.942;2023-09-30T07:37:29;13.70;99.90
34279;DHT22;20538;51.528;9.942;2023-09-30T07:39:55;13.90;99.90
34279;DHT22;20538;51.528;9.942;2023-09-30T07:42:21;14.00;99.90
34279;DHT22;20538;51.528;9.942;2023-09-30T07:44:47;14.10;99.90
34279;DHT22;20538;51.528;9.942;2023-09-30T07:47:14;14.20;99.90
34279;DHT22;20538;51.528;9.942;2023-09-30T07:49:40;14.20;99.90
34279;DHT22;20538;51.528;9.942;2023-09-30T07:52:06;14.30;99.90
34279;DHT22;20538;51.528;9.942;2023-09-30T07:54:32;14.40;99.90
34279;DHT22;20538;51.528;9.942;2023-09-30T07:56:57;14.50;99.90
34279;DHT22;20538;51.528;9.942;2023-09-30T07:59:24;14.60;99.90
34279;DHT22;20538;51.528;9.942;2023-09-30T08:01:51;14.70;99.90
34279;DHT22;20538;51.528;9.942;2023-09-30T08:04:18;14.60;99.90
34279;DHT22;20538;51.528;9.942;2023-09-30T08:06:44;14.70;99.90
34279;DHT22;20538;51.528;9.942;2023-09-30T08:09:12;14.80;99.90
34279;DHT22;20538;51.528;9.942;2023-09-30T08:11:38;14.70;99.90
34279;DHT22;20538;51.528;9.942;2023-09-30T08:14:04;14.90;99.90
34279;DHT22;20538;51.528;9.942;2023-09-30T08:16:38;15.10;99.90
34279;DHT22;20538;51.528;9.942;2023-09-30T08:19:04;15.40;99.90
34279;DHT22;20538;51.528;9.942;2023-09-30T08:21:30;15.50;99.90
34279;DHT22;20538;51.528;9.942;2023-09-30T08:23:57;15.70;99.90
34279;DHT22;20538;51.528;9.942;2023-09-30T08:26:22;15.70;99.90
34279;DHT22;20538;51.528;9.942;2023-09-30T08:28:48;15.90;99.90
34279;DHT22;20538;51.528;9.942;2023-09-30T08:31:14;16.20;99.90
34279;DHT22;20538;51.528;9.942;2023-09-30T08:33:40;16.40;99.90
34279;DHT22;20538;51.528;9.942;2023-09-30T08:36:08;16.60;99.90
34279;DHT22;20538;51.528;9.942;2023-09-30T08:38:36;16.90;99.90
34279;DHT22;20538;51.528;9.942;2023-09-30T08:41:02;16.80;99.90
34279;DHT22;20538;51.528;9.942;2023-09-30T08:43:28;16.80;99.90
34279;DHT22;20538;51.528;9.942;2023-09-30T08:45:58;16.70;99.90
34279;DHT22;20538;51.528;9.942;2023-09-30T08:48:26;16.70;99.90
34279;DHT22;20538;51.528;9.942;2023-09-30T08:50:56;16.60;99.90
34279;DHT22;20538;51.528;9.942;2023-09-30T08:53:26;16.50;99.90
34279;DHT22;20538;51.528;9.942;2023-09-30T08:55:55;16.30;99.90
34279;DHT22;20538;51.528;9.942;2023-09-30T08:58:28;16.30;99.90
34279;DHT22;20538;51.528;9.942;2023-09-30T09:00:55;15.90;99.90
34279;DHT22;20538;51.528;9.942;2023-09-30T09:03:22;15.90;99.90
34279;DHT22;20538;51.528;9.942;2023-09-30T09:05:57;16.00;99.90
34279;DHT22;20538;51.528;9.942;2023-09-30T09:08:25;15.90;99.90
34279;DHT22;20538;51.528;9.942;2023-09-30T09:10:55;15.80;99.90
34279;DHT22;20538;51.528;9.942;2023-09-30T09:13:21;15.90;99.90
34279;DHT22;20538;51.528;9.942;2023-09-30T09:15:47;16.10;99.90
34279;DHT22;20538;51.528;9.942;2023-09-30T09:18:31;16.20;99.90
34279;DHT22;20538;51.528;9.942;2023-09-30T09:21:15;16.50;99.90
34279;DHT22;20538;51.528;9.942;2023-09-30T09:23:43;16.90;99.90
34279;DHT22;20538;51.528;9.942;2023-09-30T09:26:12;17.20;99.90
34279;DHT22;20538;51.528;9.942;2023-09-30T09:28:39;17.10;99.90
34279;DHT22;20538;51.528;9.942;2023-09-30T09:31:28;17.20;99.90
34279;DHT22;20538;51.528;9.942;2023-09-30T09:33:54;17.60;99.90
34279;DHT22;20538;51.528;9.942;2023-09-30T09:36:20;17.50;99.90
34279;DHT22;20538;51.528;9.942;2023-09-30T09:38:50;17.20;99.90
34279;DHT22;20538;51.528;9.942;2023-09-30T09:41:22;16.80;99.90
34279;DHT22;20538;51.528;9.942;2023-09-30T09:43:49;16.60;99.90
34279;DHT22;20538;51.528;9.942;2023-09-30T09:46:17;16.60;99.90
34279;DHT22;20538;51.528;9.942;2023-09-30T09:48:44;16.80;99.90
34279;DHT22;20538;51.528;9.942;2023-09-30T09:51:11;16.50;99.90
34279;DHT22;20538;51.528;9.942;2023-09-30T09:53:39;16.60;99.90
34279;DHT22;20538;51.528;9.942;2023-09-30T09:56:08;16.50;99.90
34279;DHT22;20538;51.528;9.942;2023-09-30T09:58:36;16.50;99.90
34279;DHT22;20538;51.528;9.942;2023-09-30T10:01:05;16.30;99.90
34279;DHT22;20538;51.528;9.942;2023-09-30T10:03:32;16.40;99.90
34279;DHT22;20538;51.528;9.942;2023-09-30T10:05:59;16.60;99.90
34279;DHT22;20538;51.528;9.942;2023-09-30T10:08:35;17.20;99.90
34279;DHT22;20538;51.528;9.942;2023-09-30T10:11:02;17.50;99.90
34279;DHT22;20538;51.528;9.942;2023-09-30T10:19:15;17.80;99.90
34279;DHT22;20538;51.528;9.942;2023-09-30T10:24:50;17.60;99.90
34279;DHT22;20538;51.528;9.942;2023-09-30T10:30:14;17.00;99.90
34279;DHT22;20538;51.528;9.942;2023-09-30T10:35:42;17.00;99.90
34279;DHT22;20538;51.528;9.942;2023-09-30T10:41:00;16.90;99.90
34279;DHT22;20538;51.528;9.942;2023-09-30T10:43:37;16.70;99.90
34279;DHT22;20538;51.528;9.942;2023-09-30T10:46:04;16.60;99.90
34279;DHT22;20538;51.528;9.942;2023-09-30T10:48:50;16.50;99.90
34279;DHT22;20538;51.528;9.942;2023-09-30T10:51:17;16.50;99.90
34279;DHT22;20538;51.528;9.942;2023-09-30T10:53:58;16.50;99.90
34279;DHT22;20538;51.528;9.942;2023-09-30T10:56:33;16.50;99.90
34279;DHT22;20538;51.528;9.942;2023-09-30T10:58:59;16.60;99.90
34279;DHT22;20538;51.528;9.942;2023-09-30T11:01:32;16.70;99.90
34279;DHT22;20538;51.528;9.942;2023-09-30T11:04:01;17.20;99.90
34279;DHT22;20538;51.528;9.942;2023-09-30T11:06:31;17.20;99.90
34279;DHT22;20538;51.528;9.942;2023-09-30T11:08:59;17.20;99.90
34279;DHT22;20538;51.528;9.942;2023-09-30T11:11:39;17.20;99.90
34279;DHT22;20538;51.528;9.942;2023-09-30T11:16:51;17.20;99.90
34279;DHT22;20538;51.528;9.942;2023-09-30T11:19:18;17.10;99.90
34279;DHT22;20538;51.528;9.942;2023-09-30T11:21:52;17.10;99.90
34279;DHT22;20538;51.528;9.942;2023-09-30T11:24:19;17.00;99.90
34279;DHT22;20538;51.528;9.942;2023-09-30T11:26:45;17.00;99.90
34279;DHT22;20538;51.528;9.942;2023-09-30T11:29:12;17.00;99.90
34279;DHT22;20538;51.528;9.942;2023-09-30T11:31:46;17.00;99.90
34279;DHT22;20538;51.528;9.942;2023-09-30T11:34:12;17.00;99.90
34279;DHT22;20538;51.528;9.942;2023-09-30T11:36:40;17.00;99.90
34279;DHT22;20538;51.528;9.942;2023-09-30T11:39:10;17.00;99.90
34279;DHT22;20538;51.528;9.942;2023-09-30T11:41:39;16.80;99.90
34279;DHT22;20538;51.528;9.942;2023-09-30T11:44:10;16.90;99.90
34279;DHT22;20538;51.528;9.942;2023-09-30T11:46:51;16.80;99.90
34279;DHT22;20538;51.528;9.942;2023-09-30T11:49:40;16.80;99.90
34279;DHT22;20538;51.528;9.942;2023-09-30T11:52:11;16.80;99.90
34279;DHT22;20538;51.528;9.942;2023-09-30T11:54:40;16.80;99.90
34279;DHT22;20538;51.528;9.942;2023-09-30T11:57:15;16.80;99.90
34279;DHT22;20538;51.528;9.942;2023-09-30T11:59:41;16.80;99.90
34279;DHT22;20538;51.528;9.942;2023-09-30T12:02:08;16.80;99.90
34279;DHT22;20538;51.528;9.942;2023-09-30T12:04:35;16.80;99.90
34279;DHT22;20538;51.528;9.942;2023-09-30T12:07:01;16.80;99.90
34279;DHT22;20538;51.528;9.942;2023-09-30T12:09:27;16.80;99.90
34279;DHT22;20538;51.528;9.942;2023-09-30T12:11:54;17.00;99.90
34279;DHT22;20538;51.528;9.942;2023-09-30T12:14:21;17.30;99.90
34279;DHT22;20538;51.528;9.942;2023-09-30T12:16:47;17.60;99.90
34279;DHT22;20538;51.528;9.942;2023-09-30T12:19:19;17.60;99.90
34279;DHT22;20538;51.528;9.942;2023-09-30T12:21:46;17.50;99.90
34279;DHT22;20538;51.528;9.942;2023-09-30T12:24:15;17.50;99.90
34279;DHT22;20538;51.528;9.942;2023-09-30T12:26:46;17.40;99.90
34279;DHT22;20538;51.528;9.942;2023-09-30T12:29:17;17.30;99.90
34279;DHT22;20538;51.528;9.942;2023-09-30T12:31:47;17.30;99.90
34279;DHT22;20538;51.528;9.942;2023-09-30T12:34:13;17.40;99.90
34279;DHT22;20538;51.528;9.942;2023-09-30T12:36:42;17.50;99.90
34279;DHT22;20538;51.528;9.942;2023-09-30T12:39:09;17.50;99.90
34279;DHT22;20538;51.528;9.942;2023-09-30T12:41:41;17.60;99.00
34279;DHT22;20538;51.528;9.942;2023-09-30T12:44:08;17.80;99.90
34279;DHT22;20538;51.528;9.942;2023-09-30T12:46:35;18.00;99.20
34279;DHT22;20538;51.528;9.942;2023-09-30T12:49:08;18.10;98.20
34279;DHT22;20538;51.528;9.942;2023-09-30T12:51:35;18.10;99.50
34279;DHT22;20538;51.528;9.942;2023-09-30T12:54:02;18.20;99.20
34279;DHT22;20538;51.528;9.942;2023-09-30T12:56:28;18.20;98.00
34279;DHT22;20538;51.528;9.942;2023-09-30T12:58:55;18.20;96.60
34279;DHT22;20538;51.528;9.942;2023-09-30T13:01:22;18.20;95.20
34279;DHT22;20538;51.528;9.942;2023-09-30T13:03:48;18.10;96.40
34279;DHT22;20538;51.528;9.942;2023-09-30T13:06:15;18.00;98.10
34279;DHT22;20538;51.528;9.942;2023-09-30T13:08:43;17.90;95.90
34279;DHT22;20538;51.528;9.942;2023-09-30T13:11:09;17.80;97.00
34279;DHT22;20538;51.528;9.942;2023-09-30T13:13:34;17.60;97.60
34279;DHT22;20538;51.528;9.942;2023-09-30T13:16:01;17.50;99.50
34279;DHT22;20538;51.528;9.942;2023-09-30T13:18:27;17.60;99.10
34279;DHT22;20538;51.528;9.942;2023-09-30T13:20:52;17.50;99.60
34279;DHT22;20538;51.528;9.942;2023-09-30T13:23:19;17.60;99.50
34279;DHT22;20538;51.528;9.942;2023-09-30T13:25:45;17.70;99.40
34279;DHT22;20538;51.528;9.942;2023-09-30T13:28:11;17.60;98.10
34279;DHT22;20538;51.528;9.942;2023-09-30T13:30:37;17.50;97.90
34279;DHT22;20538;51.528;9.942;2023-09-30T13:33:02;17.50;98.40
34279;DHT22;20538;51.528;9.942;2023-09-30T13:35:28;17.60;98.20
34279;DHT22;20538;51.528;9.942;2023-09-30T13:37:54;17.90;98.80
34279;DHT22;20538;51.528;9.942;2023-09-30T13:40:19;17.90;98.20
34279;DHT22;20538;51.528;9.942;2023-09-30T13:42:46;17.80;97.40
34279;DHT22;20538;51.528;9.942;2023-09-30T13:45:12;17.80;97.10
34279;DHT22;20538;51.528;9.942;2023-09-30T13:47:38;17.80;97.40
34279;DHT22;20538;51.528;9.942;2023-09-30T13:50:04;17.60;98.30
34279;DHT22;20538;51.528;9.942;2023-09-30T13:52:33;17.50;97.30
34279;DHT22;20538;51.528;9.942;2023-09-30T13:54:59;17.40;97.60
34279;DHT22;20538;51.528;9.942;2023-09-30T13:57:24;17.60;97.70
34279;DHT22;20538;51.528;9.942;2023-09-30T13:59:50;17.70;97.20
34279;DHT22;20538;51.528;9.942;2023-09-30T14:02:16;17.90;96.90
34279;DHT22;20538;51.528;9.942;2023-09-30T14:04:43;18.20;97.10
34279;DHT22;20538;51.528;9.942;2023-09-30T14:07:09;18.20;95.20
34279;DHT22;20538;51.528;9.942;2023-09-30T14:09:35;18.30;95.20
34279;DHT22;20538;51.528;9.942;2023-09-30T14:12:01;18.30;95.30
34279;DHT22;20538;51.528;9.942;2023-09-30T14:14:34;18.40;95.30
34279;DHT22;20538;51.528;9.942;2023-09-30T14:17:00;18.30;93.60
34279;DHT22;20538;51.528;9.942;2023-09-30T14:19:33;18.30;93.60
34279;DHT22;20538;51.528;9.942;2023-09-30T14:21:59;18.20;92.70
34279;DHT22;20538;51.528;9.942;2023-09-30T14:24:25;18.20;93.40
34279;DHT22;20538;51.528;9.942;2023-09-30T14:26:50;18.20;93.20
34279;DHT22;20538;51.528;9.942;2023-09-30T14:29:16;18.20;94.30
34279;DHT22;20538;51.528;9.942;2023-09-30T14:31:42;18.30;93.00
34279;DHT22;20538;51.528;9.942;2023-09-30T14:34:08;18.40;94.00
34279;DHT22;20538;51.528;9.942;2023-09-30T14:36:33;18.40;93.70
34279;DHT22;20538;51.528;9.942;2023-09-30T14:39:00;18.40;92.30
34279;DHT22;20538;51.528;9.942;2023-09-30T14:41:25;18.40;94.00
34279;DHT22;20538;51.528;9.942;2023-09-30T14:43:51;18.40;93.50
34279;DHT22;20538;51.528;9.942;2023-09-30T14:46:17;18.40;93.40
34279;DHT22;20538;51.528;9.942;2023-09-30T14:48:43;18.50;93.30
34279;DHT22;20538;51.528;9.942;2023-09-30T14:51:09;18.50;94.30
34279;DHT22;20538;51.528;9.942;2023-09-30T14:53:34;18.40;93.40
34279;DHT22;20538;51.528;9.942;2023-09-30T14:56:00;18.40;94.10
34279;DHT22;20538;51.528;9.942;2023-09-30T14:58:26;18.50;93.80
34279;DHT22;20538;51.528;9.942;2023-09-30T15:00:51;18.40;94.00
34279;DHT22;20538;51.528;9.942;2023-09-30T15:03:18;18.30;93.90
34279;DHT22;20538;51.528;9.942;2023-09-30T15:05:46;18.10;94.10
34279;DHT22;20538;51.528;9.942;2023-09-30T15:08:12;18.20;95.00
34279;DHT22;20538;51.528;9.942;2023-09-30T15:10:38;18.20;95.20
34279;DHT22;20538;51.528;9.942;2023-09-30T15:13:04;18.20;94.60
34279;DHT22;20538;51.528;9.942;2023-09-30T15:15:30;18.10;93.70
34279;DHT22;20538;51.528;9.942;2023-09-30T15:17:56;18.00;93.40
34279;DHT22;20538;51.528;9.942;2023-09-30T15:20:22;18.00;93.40
34279;DHT22;20538;51.528;9.942;2023-09-30T15:22:47;18.00;92.80
34279;DHT22;20538;51.528;9.942;2023-09-30T15:25:13;17.90;93.40
34279;DHT22;20538;51.528;9.942;2023-09-30T15:27:38;17.90;93.70
34279;DHT22;20538;51.528;9.942;2023-09-30T15:30:05;17.80;95.10
34279;DHT22;20538;51.528;9.942;2023-09-30T15:32:31;17.70;93.80
34279;DHT22;20538;51.528;9.942;2023-09-30T15:34:59;17.70;94.10
34279;DHT22;20538;51.528;9.942;2023-09-30T15:37:27;17.80;93.90
34279;DHT22;20538;51.528;9.942;2023-09-30T15:39:53;17.70;95.60
34279;DHT22;20538;51.528;9.942;2023-09-30T15:42:19;17.60;95.80
34279;DHT22;20538;51.528;9.942;2023-09-30T15:54:57;17.60;95.20
34279;DHT22;20538;51.528;9.942;2023-09-30T15:57:22;17.50;94.80
34279;DHT22;20538;51.528;9.942;2023-09-30T15:59:48;17.50;95.20
34279;DHT22;20538;51.528;9.942;2023-09-30T16:02:17;17.50;95.20